CYGL

Details ICAO CYGL (YGL)
Name LA GRANDE RIVIERE
Region Canada
Timezone America/Montreal (UTC-4.0)
Plans Departing 13
Arriving 18
Stats Elevation 639 ft / 195 m (AMSL)
Location 53.625369° -77.704115°
Runways 1
Magnetic Variation 15.268° W
Sunrise 2018-05-20 09:03:20 UTC / 2018-05-20 05:03:20 Local
Sunset 2018-05-21 01:14:13 UTC / 2018-05-20 21:14:13 Local
Advertisement - Login to hide

Runways

ID Width Length Bearing (true) Bearing (mag) Surface Threshold Offset Overrun Length
13 150 ft / 46 m 6,469 ft / 1,972 m 113.03° 128.30° Asphalt 0 ft / 0 m 0 ft / 0 m
31 150 ft / 46 m 6,469 ft / 1,972 m 293.05° 308.32° Asphalt 0 ft / 0 m 0 ft / 0 m

Map

Weather


0- 5 10 15 20 25 30 35+ Temperature / ° C

Clouds and Precipitation
Forecast for 2018-05-20 18:00 UTC. Updated 5 hours ago

Ground ~20,000 ft ~40,000 ft Winds

METAR

CYGL 202200Z 29012G22KT 15SM OVC016 M00/M03 A2987 RMK SC8 SLP132

TAF

TAF TAF AMD CYGL 202011Z 2020/2118 28018G28KT P6SM SCT020 BKN030 TEMPO 2020/2103 5SM -SHRASN BR BKN020 OVC030 FM210300 30015G25KT 6SM -SHSN FEW008 OVC020 BECMG 2110/2112 29010G20KT FM211500 30012KT P6SM -SN BKN025 RMK NXT FCST BY 210000Z

Frequencies

Tower 122.30 MHz MF
Warning: Do not use this data for real-world aviation or navigation. No guarantee of current accuracy is given.